createdAt,value
2022-11-05T06:15:49.752Z,3.58
2022-11-05T06:25:49.571Z,2.60
2022-11-05T06:35:49.576Z,2.31
2022-11-05T06:45:49.670Z,2.97
2022-11-05T06:55:49.674Z,3.30
2022-11-05T07:05:49.742Z,0.55
2022-11-05T07:15:49.654Z,1.19
2022-11-05T07:25:49.903Z,3.00
2022-11-05T07:35:49.717Z,3.78
2022-11-05T07:45:49.670Z,5.26
2022-11-05T07:55:49.810Z,6.58
2022-11-05T08:05:49.938Z,5.74
2022-11-05T08:15:49.825Z,5.52
2022-11-05T08:25:49.815Z,7.03
2022-11-05T08:35:49.767Z,9.62
2022-11-05T08:45:49.916Z,10.76
2022-11-05T08:55:50.227Z,10.22
2022-11-05T09:05:50.177Z,9.76
2022-11-05T09:15:50.249Z,12.06
2022-11-05T09:25:50.220Z,11.76
2022-11-05T09:35:50.307Z,12.27
2022-11-05T09:45:50.194Z,11.74
2022-11-05T09:55:50.188Z,12.48
2022-11-05T10:05:50.210Z,12.76
2022-11-05T10:15:50.279Z,13.07
2022-11-05T10:25:50.114Z,11.68
2022-11-05T10:35:50.181Z,15.24
2022-11-05T10:45:50.129Z,13.89
2022-11-05T10:55:50.159Z,14.35
2022-11-05T11:05:50.356Z,14.14
2022-11-05T11:15:50.293Z,16.06
2022-11-05T11:25:50.386Z,15.74
2022-11-05T11:35:50.332Z,17.09
2022-11-05T11:45:50.312Z,14.88
2022-11-05T11:55:50.614Z,14.97
2022-11-05T12:05:50.329Z,15.54
2022-11-05T12:15:50.307Z,16.69
2022-11-05T12:25:50.272Z,12.86
2022-11-05T12:35:56.421Z,13.91
2022-11-05T12:45:50.304Z,14.20
2022-11-05T12:55:50.206Z,16.25
2022-11-05T13:05:50.295Z,14.78
2022-11-05T13:15:51.255Z,15.21
2022-11-05T13:25:50.339Z,14.73
2022-11-05T13:35:50.345Z,12.18
2022-11-05T13:45:50.311Z,15.42
2022-11-05T13:55:50.327Z,13.52
2022-11-05T14:05:50.255Z,12.33
2022-11-05T14:15:50.409Z,15.66
2022-11-05T14:25:50.262Z,11.59
2022-11-05T14:35:50.313Z,12.67
2022-11-05T14:45:50.432Z,9.14
2022-11-05T14:55:50.363Z,8.27
2022-11-05T15:05:50.450Z,7.72
2022-11-05T15:15:50.438Z,6.92
2022-11-05T15:25:53.201Z,7.17
2022-11-05T15:35:50.378Z,6.75
2022-11-05T15:45:50.362Z,7.22
2022-11-05T15:55:50.267Z,7.98
2022-11-05T16:05:50.592Z,7.29
2022-11-05T16:15:50.513Z,6.93
2022-11-05T16:25:50.307Z,6.72
2022-11-05T16:35:50.534Z,6.83
2022-11-05T16:45:50.649Z,8.25
2022-11-05T16:55:50.457Z,7.92
2022-11-05T17:05:50.418Z,6.00
2022-11-05T17:15:50.568Z,6.63
2022-11-05T17:25:50.401Z,5.64
2022-11-05T17:35:50.467Z,5.27
2022-11-05T17:45:50.479Z,5.73
2022-11-05T17:55:50.501Z,4.96
2022-11-05T18:05:50.405Z,6.10
2022-11-05T18:15:50.379Z,8.46
2022-11-05T18:25:50.417Z,8.10
2022-11-05T18:35:50.525Z,8.38
2022-11-05T18:45:50.428Z,8.19
2022-11-05T18:55:50.498Z,6.82
2022-11-05T19:05:50.732Z,4.67
2022-11-05T19:15:50.707Z,4.05
